sensor_id;sensor_type;location;lat;lon;timestamp;P1;durP1;ratioP1;P2;durP2;ratioP2
74632;SDS011;63139;52.018;8.552;2022-12-07T00:01:05;24.80;;;14.82;;
74632;SDS011;63139;52.018;8.552;2022-12-07T00:03:34;27.25;;;15.98;;
74632;SDS011;63139;52.018;8.552;2022-12-07T00:06:03;27.60;;;17.02;;
74632;SDS011;63139;52.018;8.552;2022-12-07T00:08:31;24.15;;;15.27;;
74632;SDS011;63139;52.018;8.552;2022-12-07T00:11:00;27.33;;;15.60;;
74632;SDS011;63139;52.018;8.552;2022-12-07T00:13:30;27.80;;;16.98;;
74632;SDS011;63139;52.018;8.552;2022-12-07T00:16:00;30.95;;;17.67;;
74632;SDS011;63139;52.018;8.552;2022-12-07T00:18:29;31.88;;;19.10;;
74632;SDS011;63139;52.018;8.552;2022-12-07T00:21:00;26.67;;;15.45;;
74632;SDS011;63139;52.018;8.552;2022-12-07T00:23:29;32.25;;;18.58;;
74632;SDS011;63139;52.018;8.552;2022-12-07T00:26:03;25.90;;;15.13;;
74632;SDS011;63139;52.018;8.552;2022-12-07T00:28:33;30.67;;;18.13;;
74632;SDS011;63139;52.018;8.552;2022-12-07T00:31:02;30.00;;;18.17;;
74632;SDS011;63139;52.018;8.552;2022-12-07T00:33:32;25.80;;;15.80;;
74632;SDS011;63139;52.018;8.552;2022-12-07T00:36:00;25.58;;;16.20;;
74632;SDS011;63139;52.018;8.552;2022-12-07T00:38:30;25.00;;;13.60;;
74632;SDS011;63139;52.018;8.552;2022-12-07T00:40:59;28.90;;;16.95;;
74632;SDS011;63139;52.018;8.552;2022-12-07T00:43:30;24.13;;;14.23;;
74632;SDS011;63139;52.018;8.552;2022-12-07T00:45:58;26.67;;;16.30;;
74632;SDS011;63139;52.018;8.552;2022-12-07T00:48:26;25.15;;;15.40;;
74632;SDS011;63139;52.018;8.552;2022-12-07T00:50:54;25.40;;;15.25;;
74632;SDS011;63139;52.018;8.552;2022-12-07T00:53:22;21.75;;;13.57;;
74632;SDS011;63139;52.018;8.552;2022-12-07T00:55:50;18.85;;;12.18;;
74632;SDS011;63139;52.018;8.552;2022-12-07T00:58:19;23.15;;;14.50;;
74632;SDS011;63139;52.018;8.552;2022-12-07T01:00:48;21.98;;;14.27;;
74632;SDS011;63139;52.018;8.552;2022-12-07T01:03:16;25.88;;;15.10;;
74632;SDS011;63139;52.018;8.552;2022-12-07T01:05:51;22.27;;;14.23;;
74632;SDS011;63139;52.018;8.552;2022-12-07T01:08:20;21.70;;;13.63;;
74632;SDS011;63139;52.018;8.552;2022-12-07T01:10:48;21.60;;;13.68;;
74632;SDS011;63139;52.018;8.552;2022-12-07T01:13:16;23.92;;;15.55;;
74632;SDS011;63139;52.018;8.552;2022-12-07T01:15:44;22.45;;;14.35;;
74632;SDS011;63139;52.018;8.552;2022-12-07T01:18:13;23.33;;;14.43;;
74632;SDS011;63139;52.018;8.552;2022-12-07T01:20:41;24.38;;;14.15;;
74632;SDS011;63139;52.018;8.552;2022-12-07T01:23:09;25.60;;;15.25;;
74632;SDS011;63139;52.018;8.552;2022-12-07T01:25:37;17.98;;;11.40;;
74632;SDS011;63139;52.018;8.552;2022-12-07T01:28:04;26.45;;;15.40;;
74632;SDS011;63139;52.018;8.552;2022-12-07T01:30:32;20.05;;;12.63;;
74632;SDS011;63139;52.018;8.552;2022-12-07T01:33:00;26.45;;;15.13;;
74632;SDS011;63139;52.018;8.552;2022-12-07T01:35:29;22.58;;;13.70;;
74632;SDS011;63139;52.018;8.552;2022-12-07T01:37:57;19.42;;;12.32;;
74632;SDS011;63139;52.018;8.552;2022-12-07T01:40:24;19.27;;;13.07;;
74632;SDS011;63139;52.018;8.552;2022-12-07T01:42:52;20.83;;;11.68;;
74632;SDS011;63139;52.018;8.552;2022-12-07T01:48:07;21.63;;;13.07;;
74632;SDS011;63139;52.018;8.552;2022-12-07T01:50:39;15.52;;;10.77;;
74632;SDS011;63139;52.018;8.552;2022-12-07T01:53:08;18.02;;;11.48;;
74632;SDS011;63139;52.018;8.552;2022-12-07T01:55:38;16.75;;;11.70;;
74632;SDS011;63139;52.018;8.552;2022-12-07T01:58:09;17.17;;;11.32;;
74632;SDS011;63139;52.018;8.552;2022-12-07T02:00:39;16.35;;;10.32;;
74632;SDS011;63139;52.018;8.552;2022-12-07T02:03:09;17.83;;;10.32;;
74632;SDS011;63139;52.018;8.552;2022-12-07T02:05:43;16.75;;;10.55;;
74632;SDS011;63139;52.018;8.552;2022-12-07T02:08:12;15.20;;;9.98;;
74632;SDS011;63139;52.018;8.552;2022-12-07T02:10:40;15.82;;;9.15;;
74632;SDS011;63139;52.018;8.552;2022-12-07T02:13:09;16.20;;;8.85;;
74632;SDS011;63139;52.018;8.552;2022-12-07T02:18:44;17.40;;;10.18;;
74632;SDS011;63139;52.018;8.552;2022-12-07T02:21:23;17.02;;;9.48;;
74632;SDS011;63139;52.018;8.552;2022-12-07T02:29:57;17.92;;;10.85;;
74632;SDS011;63139;52.018;8.552;2022-12-07T02:32:29;18.05;;;10.07;;
74632;SDS011;63139;52.018;8.552;2022-12-07T02:35:06;22.38;;;11.30;;
74632;SDS011;63139;52.018;8.552;2022-12-07T02:37:37;19.38;;;11.05;;
74632;SDS011;63139;52.018;8.552;2022-12-07T02:40:10;23.13;;;9.70;;
74632;SDS011;63139;52.018;8.552;2022-12-07T02:42:45;22.75;;;11.23;;
74632;SDS011;63139;52.018;8.552;2022-12-07T02:45:18;25.50;;;10.85;;
74632;SDS011;63139;52.018;8.552;2022-12-07T02:47:50;24.00;;;9.30;;
74632;SDS011;63139;52.018;8.552;2022-12-07T02:50:20;16.55;;;9.10;;
74632;SDS011;63139;52.018;8.552;2022-12-07T02:52:49;21.00;;;9.13;;
74632;SDS011;63139;52.018;8.552;2022-12-07T02:55:17;16.55;;;8.52;;
74632;SDS011;63139;52.018;8.552;2022-12-07T02:57:55;17.00;;;9.02;;
74632;SDS011;63139;52.018;8.552;2022-12-07T03:00:39;17.45;;;7.60;;
74632;SDS011;63139;52.018;8.552;2022-12-07T03:03:16;13.60;;;7.38;;
74632;SDS011;63139;52.018;8.552;2022-12-07T03:05:48;17.92;;;8.73;;
74632;SDS011;63139;52.018;8.552;2022-12-07T03:08:26;15.65;;;8.05;;
74632;SDS011;63139;52.018;8.552;2022-12-07T03:11:00;15.43;;;7.38;;
74632;SDS011;63139;52.018;8.552;2022-12-07T03:13:31;18.67;;;7.57;;
74632;SDS011;63139;52.018;8.552;2022-12-07T03:16:08;10.48;;;6.78;;
74632;SDS011;63139;52.018;8.552;2022-12-07T03:18:40;18.67;;;7.88;;
74632;SDS011;63139;52.018;8.552;2022-12-07T03:21:14;20.13;;;9.00;;
74632;SDS011;63139;52.018;8.552;2022-12-07T03:23:45;14.75;;;7.00;;
74632;SDS011;63139;52.018;8.552;2022-12-07T03:26:17;20.55;;;8.00;;
74632;SDS011;63139;52.018;8.552;2022-12-07T03:28:47;17.42;;;8.60;;
74632;SDS011;63139;52.018;8.552;2022-12-07T03:31:21;17.30;;;7.82;;
74632;SDS011;63139;52.018;8.552;2022-12-07T03:33:53;18.08;;;7.90;;
74632;SDS011;63139;52.018;8.552;2022-12-07T03:36:28;17.88;;;7.65;;
74632;SDS011;63139;52.018;8.552;2022-12-07T03:39:01;15.95;;;7.13;;
74632;SDS011;63139;52.018;8.552;2022-12-07T03:41:34;21.48;;;8.82;;
74632;SDS011;63139;52.018;8.552;2022-12-07T03:44:10;12.75;;;7.45;;
74632;SDS011;63139;52.018;8.552;2022-12-07T03:46:41;23.88;;;9.02;;
74632;SDS011;63139;52.018;8.552;2022-12-07T03:49:14;22.30;;;11.13;;
74632;SDS011;63139;52.018;8.552;2022-12-07T03:51:49;16.23;;;8.52;;
74632;SDS011;63139;52.018;8.552;2022-12-07T03:54:24;15.68;;;8.48;;
74632;SDS011;63139;52.018;8.552;2022-12-07T03:56:53;14.20;;;8.02;;
74632;SDS011;63139;52.018;8.552;2022-12-07T03:59:23;13.43;;;7.22;;
74632;SDS011;63139;52.018;8.552;2022-12-07T04:01:53;20.33;;;9.02;;
74632;SDS011;63139;52.018;8.552;2022-12-07T04:04:23;14.65;;;8.00;;
74632;SDS011;63139;52.018;8.552;2022-12-07T04:06:52;15.82;;;7.70;;
74632;SDS011;63139;52.018;8.552;2022-12-07T04:09:20;16.05;;;7.13;;
74632;SDS011;63139;52.018;8.552;2022-12-07T04:11:48;16.75;;;7.60;;
74632;SDS011;63139;52.018;8.552;2022-12-07T04:14:15;12.30;;;6.95;;
74632;SDS011;63139;52.018;8.552;2022-12-07T04:16:46;17.80;;;9.38;;
74632;SDS011;63139;52.018;8.552;2022-12-07T04:19:17;14.38;;;7.82;;
74632;SDS011;63139;52.018;8.552;2022-12-07T04:21:47;12.85;;;6.72;;
74632;SDS011;63139;52.018;8.552;2022-12-07T04:24:15;13.43;;;7.32;;
74632;SDS011;63139;52.018;8.552;2022-12-07T04:26:43;9.70;;;5.43;;
74632;SDS011;63139;52.018;8.552;2022-12-07T04:29:12;14.50;;;7.18;;
74632;SDS011;63139;52.018;8.552;2022-12-07T04:31:41;10.30;;;6.25;;
74632;SDS011;63139;52.018;8.552;2022-12-07T04:34:09;14.55;;;7.55;;
74632;SDS011;63139;52.018;8.552;2022-12-07T04:36:39;13.63;;;6.50;;
74632;SDS011;63139;52.018;8.552;2022-12-07T04:39:08;14.00;;;6.22;;
74632;SDS011;63139;52.018;8.552;2022-12-07T04:41:44;12.18;;;6.32;;
74632;SDS011;63139;52.018;8.552;2022-12-07T04:44:12;11.18;;;6.40;;
74632;SDS011;63139;52.018;8.552;2022-12-07T04:46:41;14.63;;;6.70;;
74632;SDS011;63139;52.018;8.552;2022-12-07T04:49:10;17.17;;;7.03;;
74632;SDS011;63139;52.018;8.552;2022-12-07T04:51:39;15.30;;;6.60;;
74632;SDS011;63139;52.018;8.552;2022-12-07T04:54:08;16.85;;;6.05;;
74632;SDS011;63139;52.018;8.552;2022-12-07T04:56:36;14.88;;;6.47;;
74632;SDS011;63139;52.018;8.552;2022-12-07T04:59:04;14.05;;;7.03;;
74632;SDS011;63139;52.018;8.552;2022-12-07T05:01:32;14.52;;;7.22;;
74632;SDS011;63139;52.018;8.552;2022-12-07T05:04:01;13.07;;;7.28;;
74632;SDS011;63139;52.018;8.552;2022-12-07T05:06:29;16.60;;;6.22;;
74632;SDS011;63139;52.018;8.552;2022-12-07T05:08:58;11.73;;;6.00;;
74632;SDS011;63139;52.018;8.552;2022-12-07T05:11:26;14.05;;;7.13;;
74632;SDS011;63139;52.018;8.552;2022-12-07T05:14:07;13.05;;;6.07;;
74632;SDS011;63139;52.018;8.552;2022-12-07T05:16:37;16.60;;;6.03;;
74632;SDS011;63139;52.018;8.552;2022-12-07T05:19:05;11.68;;;6.18;;
74632;SDS011;63139;52.018;8.552;2022-12-07T05:21:33;11.40;;;6.53;;
74632;SDS011;63139;52.018;8.552;2022-12-07T05:24:03;16.40;;;6.60;;
74632;SDS011;63139;52.018;8.552;2022-12-07T05:26:32;9.40;;;5.32;;
74632;SDS011;63139;52.018;8.552;2022-12-07T05:29:00;12.85;;;5.53;;
74632;SDS011;63139;52.018;8.552;2022-12-07T05:31:28;13.50;;;5.82;;
74632;SDS011;63139;52.018;8.552;2022-12-07T05:33:56;11.02;;;5.90;;
74632;SDS011;63139;52.018;8.552;2022-12-07T05:36:23;9.43;;;5.80;;
74632;SDS011;63139;52.018;8.552;2022-12-07T05:38:51;8.15;;;5.03;;
74632;SDS011;63139;52.018;8.552;2022-12-07T05:41:20;19.73;;;6.30;;
74632;SDS011;63139;52.018;8.552;2022-12-07T05:44:06;10.00;;;5.18;;
74632;SDS011;63139;52.018;8.552;2022-12-07T05:46:33;10.60;;;4.88;;
74632;SDS011;63139;52.018;8.552;2022-12-07T05:49:01;10.82;;;4.90;;
74632;SDS011;63139;52.018;8.552;2022-12-07T05:51:30;9.38;;;4.40;;
74632;SDS011;63139;52.018;8.552;2022-12-07T05:53:57;10.82;;;5.25;;
74632;SDS011;63139;52.018;8.552;2022-12-07T05:56:26;13.23;;;5.43;;
74632;SDS011;63139;52.018;8.552;2022-12-07T05:58:54;9.82;;;4.93;;
74632;SDS011;63139;52.018;8.552;2022-12-07T06:01:40;9.60;;;5.18;;
74632;SDS011;63139;52.018;8.552;2022-12-07T06:04:08;7.82;;;4.43;;
74632;SDS011;63139;52.018;8.552;2022-12-07T06:06:36;9.20;;;4.68;;
74632;SDS011;63139;52.018;8.552;2022-12-07T06:09:04;10.57;;;5.35;;
74632;SDS011;63139;52.018;8.552;2022-12-07T06:11:33;9.48;;;5.50;;
74632;SDS011;63139;52.018;8.552;2022-12-07T06:14:18;8.43;;;4.50;;
74632;SDS011;63139;52.018;8.552;2022-12-07T06:16:47;8.68;;;4.85;;
74632;SDS011;63139;52.018;8.552;2022-12-07T06:19:15;11.10;;;5.30;;
74632;SDS011;63139;52.018;8.552;2022-12-07T06:21:43;8.48;;;5.00;;
74632;SDS011;63139;52.018;8.552;2022-12-07T06:24:11;11.57;;;5.65;;
74632;SDS011;63139;52.018;8.552;2022-12-07T06:26:41;8.98;;;5.43;;
74632;SDS011;63139;52.018;8.552;2022-12-07T06:29:10;13.60;;;5.57;;
74632;SDS011;63139;52.018;8.552;2022-12-07T06:31:38;14.25;;;6.60;;
74632;SDS011;63139;52.018;8.552;2022-12-07T06:34:07;11.15;;;5.50;;
74632;SDS011;63139;52.018;8.552;2022-12-07T06:36:37;9.25;;;4.95;;
74632;SDS011;63139;52.018;8.552;2022-12-07T06:39:05;10.30;;;5.45;;
74632;SDS011;63139;52.018;8.552;2022-12-07T06:41:35;12.20;;;5.53;;
74632;SDS011;63139;52.018;8.552;2022-12-07T06:44:04;12.50;;;5.70;;
74632;SDS011;63139;52.018;8.552;2022-12-07T06:46:33;14.43;;;6.10;;
74632;SDS011;63139;52.018;8.552;2022-12-07T06:49:01;14.13;;;5.07;;
74632;SDS011;63139;52.018;8.552;2022-12-07T06:51:30;10.45;;;5.35;;
74632;SDS011;63139;52.018;8.552;2022-12-07T06:53:58;10.63;;;4.93;;
74632;SDS011;63139;52.018;8.552;2022-12-07T06:56:25;9.70;;;5.10;;
74632;SDS011;63139;52.018;8.552;2022-12-07T06:58:53;10.80;;;4.85;;
74632;SDS011;63139;52.018;8.552;2022-12-07T07:01:22;13.35;;;5.13;;
74632;SDS011;63139;52.018;8.552;2022-12-07T07:03:50;12.32;;;4.85;;
74632;SDS011;63139;52.018;8.552;2022-12-07T07:06:18;14.23;;;4.72;;
74632;SDS011;63139;52.018;8.552;2022-12-07T07:08:46;7.75;;;4.25;;
74632;SDS011;63139;52.018;8.552;2022-12-07T07:11:14;12.07;;;4.78;;
74632;SDS011;63139;52.018;8.552;2022-12-07T07:13:41;12.02;;;4.75;;
74632;SDS011;63139;52.018;8.552;2022-12-07T07:16:09;9.27;;;4.10;;
74632;SDS011;63139;52.018;8.552;2022-12-07T07:18:38;12.82;;;4.68;;
74632;SDS011;63139;52.018;8.552;2022-12-07T07:21:06;8.82;;;4.32;;
74632;SDS011;63139;52.018;8.552;2022-12-07T07:23:34;9.65;;;4.53;;
74632;SDS011;63139;52.018;8.552;2022-12-07T07:26:02;12.48;;;4.75;;
74632;SDS011;63139;52.018;8.552;2022-12-07T07:28:30;12.93;;;4.60;;
74632;SDS011;63139;52.018;8.552;2022-12-07T07:30:57;10.60;;;4.15;;
74632;SDS011;63139;52.018;8.552;2022-12-07T07:33:25;9.40;;;4.45;;
74632;SDS011;63139;52.018;8.552;2022-12-07T07:35:54;9.55;;;4.40;;
74632;SDS011;63139;52.018;8.552;2022-12-07T07:38:22;8.82;;;4.28;;
74632;SDS011;63139;52.018;8.552;2022-12-07T07:40:50;14.80;;;5.28;;
74632;SDS011;63139;52.018;8.552;2022-12-07T07:43:18;11.80;;;4.53;;
74632;SDS011;63139;52.018;8.552;2022-12-07T07:45:45;12.23;;;4.90;;
74632;SDS011;63139;52.018;8.552;2022-12-07T07:48:13;9.48;;;4.05;;
74632;SDS011;63139;52.018;8.552;2022-12-07T07:50:41;9.02;;;4.15;;
74632;SDS011;63139;52.018;8.552;2022-12-07T07:53:10;11.73;;;4.03;;
74632;SDS011;63139;52.018;8.552;2022-12-07T07:55:38;12.27;;;4.70;;
74632;SDS011;63139;52.018;8.552;2022-12-07T07:58:06;9.25;;;4.45;;
74632;SDS011;63139;52.018;8.552;2022-12-07T08:00:33;12.18;;;4.60;;
74632;SDS011;63139;52.018;8.552;2022-12-07T08:03:01;16.60;;;4.70;;
74632;SDS011;63139;52.018;8.552;2022-12-07T08:05:29;9.18;;;4.32;;
74632;SDS011;63139;52.018;8.552;2022-12-07T08:07:57;11.23;;;4.70;;
74632;SDS011;63139;52.018;8.552;2022-12-07T08:10:26;10.65;;;4.40;;
74632;SDS011;63139;52.018;8.552;2022-12-07T08:12:54;15.70;;;4.20;;
74632;SDS011;63139;52.018;8.552;2022-12-07T08:15:41;11.82;;;4.25;;
74632;SDS011;63139;52.018;8.552;2022-12-07T08:18:10;11.23;;;4.00;;
74632;SDS011;63139;52.018;8.552;2022-12-07T08:20:39;6.53;;;3.55;;
74632;SDS011;63139;52.018;8.552;2022-12-07T08:23:07;10.63;;;3.63;;
74632;SDS011;63139;52.018;8.552;2022-12-07T08:25:40;9.10;;;3.80;;
74632;SDS011;63139;52.018;8.552;2022-12-07T08:28:08;9.85;;;3.60;;
74632;SDS011;63139;52.018;8.552;2022-12-07T08:30:36;7.95;;;3.53;;
74632;SDS011;63139;52.018;8.552;2022-12-07T08:33:03;11.52;;;3.88;;
74632;SDS011;63139;52.018;8.552;2022-12-07T08:35:32;9.70;;;4.07;;
74632;SDS011;63139;52.018;8.552;2022-12-07T08:38:00;10.50;;;3.03;;
74632;SDS011;63139;52.018;8.552;2022-12-07T08:40:28;11.38;;;3.13;;
74632;SDS011;63139;52.018;8.552;2022-12-07T08:42:58;8.43;;;3.10;;
74632;SDS011;63139;52.018;8.552;2022-12-07T08:45:25;9.13;;;3.60;;
74632;SDS011;63139;52.018;8.552;2022-12-07T08:47:54;8.90;;;3.63;;
74632;SDS011;63139;52.018;8.552;2022-12-07T08:50:25;9.23;;;3.22;;
74632;SDS011;63139;52.018;8.552;2022-12-07T08:52:54;6.60;;;2.92;;
74632;SDS011;63139;52.018;8.552;2022-12-07T08:55:24;7.47;;;3.22;;
74632;SDS011;63139;52.018;8.552;2022-12-07T08:57:52;12.00;;;2.90;;
74632;SDS011;63139;52.018;8.552;2022-12-07T09:00:22;9.63;;;2.92;;
74632;SDS011;63139;52.018;8.552;2022-12-07T09:02:50;9.00;;;2.85;;
74632;SDS011;63139;52.018;8.552;2022-12-07T09:05:18;6.93;;;2.40;;
74632;SDS011;63139;52.018;8.552;2022-12-07T09:07:47;5.93;;;2.50;;
74632;SDS011;63139;52.018;8.552;2022-12-07T09:10:18;11.98;;;2.85;;
74632;SDS011;63139;52.018;8.552;2022-12-07T09:12:46;11.13;;;2.72;;
74632;SDS011;63139;52.018;8.552;2022-12-07T09:15:14;7.45;;;2.58;;
74632;SDS011;63139;52.018;8.552;2022-12-07T09:17:44;8.15;;;2.38;;
74632;SDS011;63139;52.018;8.552;2022-12-07T09:20:12;5.97;;;1.80;;
74632;SDS011;63139;52.018;8.552;2022-12-07T09:22:40;9.25;;;2.95;;
74632;SDS011;63139;52.018;8.552;2022-12-07T09:25:08;9.10;;;2.42;;
74632;SDS011;63139;52.018;8.552;2022-12-07T09:27:36;6.20;;;2.10;;
74632;SDS011;63139;52.018;8.552;2022-12-07T09:30:04;5.63;;;2.40;;
74632;SDS011;63139;52.018;8.552;2022-12-07T09:32:33;9.32;;;2.47;;
74632;SDS011;63139;52.018;8.552;2022-12-07T09:35:03;8.73;;;2.45;;
74632;SDS011;63139;52.018;8.552;2022-12-07T09:37:31;6.03;;;2.00;;
74632;SDS011;63139;52.018;8.552;2022-12-07T09:40:01;6.28;;;2.28;;
74632;SDS011;63139;52.018;8.552;2022-12-07T09:42:32;11.73;;;2.67;;
74632;SDS011;63139;52.018;8.552;2022-12-07T09:45:04;9.52;;;2.80;;
74632;SDS011;63139;52.018;8.552;2022-12-07T09:47:34;12.27;;;3.03;;
74632;SDS011;63139;52.018;8.552;2022-12-07T09:50:05;8.70;;;2.55;;
74632;SDS011;63139;52.018;8.552;2022-12-07T09:52:39;8.63;;;2.40;;
74632;SDS011;63139;52.018;8.552;2022-12-07T09:55:09;9.02;;;2.47;;
74632;SDS011;63139;52.018;8.552;2022-12-07T09:57:39;7.55;;;2.40;;
74632;SDS011;63139;52.018;8.552;2022-12-07T10:00:10;7.85;;;2.60;;
74632;SDS011;63139;52.018;8.552;2022-12-07T10:02:42;9.88;;;2.33;;
74632;SDS011;63139;52.018;8.552;2022-12-07T10:05:14;4.05;;;2.00;;
74632;SDS011;63139;52.018;8.552;2022-12-07T10:07:49;7.57;;;2.58;;
74632;SDS011;63139;52.018;8.552;2022-12-07T10:10:19;7.80;;;2.20;;
74632;SDS011;63139;52.018;8.552;2022-12-07T10:12:53;6.68;;;2.33;;
74632;SDS011;63139;52.018;8.552;2022-12-07T10:15:41;9.50;;;2.42;;
74632;SDS011;63139;52.018;8.552;2022-12-07T10:18:18;5.35;;;2.25;;
74632;SDS011;63139;52.018;8.552;2022-12-07T10:20:49;11.32;;;3.05;;
74632;SDS011;63139;52.018;8.552;2022-12-07T10:23:28;7.70;;;2.65;;
74632;SDS011;63139;52.018;8.552;2022-12-07T10:25:56;6.43;;;2.35;;
74632;SDS011;63139;52.018;8.552;2022-12-07T10:28:27;4.03;;;2.00;;
74632;SDS011;63139;52.018;8.552;2022-12-07T10:31:15;7.95;;;2.20;;
74632;SDS011;63139;52.018;8.552;2022-12-07T10:33:48;6.43;;;2.10;;
74632;SDS011;63139;52.018;8.552;2022-12-07T10:36:21;4.38;;;2.10;;
74632;SDS011;63139;52.018;8.552;2022-12-07T10:38:52;8.95;;;2.30;;
74632;SDS011;63139;52.018;8.552;2022-12-07T10:41:27;6.37;;;2.23;;
74632;SDS011;63139;52.018;8.552;2022-12-07T10:43:55;9.55;;;2.08;;
74632;SDS011;63139;52.018;8.552;2022-12-07T10:49:26;5.00;;;2.08;;
74632;SDS011;63139;52.018;8.552;2022-12-07T10:52:13;9.27;;;2.63;;
74632;SDS011;63139;52.018;8.552;2022-12-07T10:54:48;10.82;;;2.40;;
74632;SDS011;63139;52.018;8.552;2022-12-07T10:57:33;9.50;;;2.05;;
74632;SDS011;63139;52.018;8.552;2022-12-07T11:00:18;5.90;;;2.17;;
74632;SDS011;63139;52.018;8.552;2022-12-07T11:02:58;5.13;;;1.90;;
74632;SDS011;63139;52.018;8.552;2022-12-07T11:08:21;7.95;;;1.98;;
74632;SDS011;63139;52.018;8.552;2022-12-07T11:10:58;5.22;;;1.65;;
74632;SDS011;63139;52.018;8.552;2022-12-07T11:13:36;6.00;;;2.00;;
74632;SDS011;63139;52.018;8.552;2022-12-07T11:16:23;8.50;;;1.83;;
74632;SDS011;63139;52.018;8.552;2022-12-07T11:19:10;9.45;;;2.50;;
74632;SDS011;63139;52.018;8.552;2022-12-07T11:21:55;7.35;;;1.90;;
74632;SDS011;63139;52.018;8.552;2022-12-07T11:24:27;11.82;;;1.90;;
74632;SDS011;63139;52.018;8.552;2022-12-07T11:27:08;8.60;;;1.90;;
74632;SDS011;63139;52.018;8.552;2022-12-07T11:32:45;11.73;;;2.17;;
74632;SDS011;63139;52.018;8.552;2022-12-07T11:35:22;5.50;;;1.67;;
74632;SDS011;63139;52.018;8.552;2022-12-07T11:37:59;3.45;;;1.58;;
74632;SDS011;63139;52.018;8.552;2022-12-07T11:40:33;6.25;;;1.70;;
74632;SDS011;63139;52.018;8.552;2022-12-07T11:43:04;8.05;;;2.03;;
74632;SDS011;63139;52.018;8.552;2022-12-07T11:45:41;4.53;;;1.83;;
74632;SDS011;63139;52.018;8.552;2022-12-07T11:48:13;5.20;;;1.75;;
74632;SDS011;63139;52.018;8.552;2022-12-07T11:50:47;7.88;;;2.08;;
74632;SDS011;63139;52.018;8.552;2022-12-07T11:53:18;6.65;;;1.60;;
74632;SDS011;63139;52.018;8.552;2022-12-07T11:55:52;5.78;;;1.75;;
74632;SDS011;63139;52.018;8.552;2022-12-07T11:58:34;8.98;;;2.00;;
74632;SDS011;63139;52.018;8.552;2022-12-07T12:01:11;5.22;;;1.85;;
74632;SDS011;63139;52.018;8.552;2022-12-07T12:04:01;9.45;;;1.92;;
74632;SDS011;63139;52.018;8.552;2022-12-07T12:06:34;7.32;;;1.85;;
74632;SDS011;63139;52.018;8.552;2022-12-07T12:09:03;9.18;;;1.75;;
74632;SDS011;63139;52.018;8.552;2022-12-07T12:12:15;8.73;;;1.75;;
74632;SDS011;63139;52.018;8.552;2022-12-07T12:15:23;5.15;;;1.65;;
74632;SDS011;63139;52.018;8.552;2022-12-07T12:18:05;8.77;;;1.90;;
74632;SDS011;63139;52.018;8.552;2022-12-07T12:20:43;4.63;;;1.88;;
74632;SDS011;63139;52.018;8.552;2022-12-07T12:23:15;11.25;;;1.95;;
74632;SDS011;63139;52.018;8.552;2022-12-07T12:25:47;4.47;;;1.55;;
74632;SDS011;63139;52.018;8.552;2022-12-07T12:28:26;5.65;;;1.45;;
74632;SDS011;63139;52.018;8.552;2022-12-07T12:31:10;4.75;;;1.52;;
74632;SDS011;63139;52.018;8.552;2022-12-07T12:33:45;7.07;;;1.52;;
74632;SDS011;63139;52.018;8.552;2022-12-07T12:36:23;7.40;;;1.60;;
74632;SDS011;63139;52.018;8.552;2022-12-07T12:39:08;6.38;;;1.40;;
74632;SDS011;63139;52.018;8.552;2022-12-07T12:44:45;10.32;;;1.35;;
74632;SDS011;63139;52.018;8.552;2022-12-07T12:47:39;7.15;;;1.40;;
74632;SDS011;63139;52.018;8.552;2022-12-07T12:50:19;9.30;;;1.65;;
74632;SDS011;63139;52.018;8.552;2022-12-07T12:58:47;5.82;;;1.30;;
74632;SDS011;63139;52.018;8.552;2022-12-07T13:01:36;6.00;;;1.67;;
74632;SDS011;63139;52.018;8.552;2022-12-07T13:04:23;8.50;;;2.17;;
74632;SDS011;63139;52.018;8.552;2022-12-07T13:06:54;8.32;;;1.83;;
74632;SDS011;63139;52.018;8.552;2022-12-07T13:09:23;9.82;;;1.80;;
74632;SDS011;63139;52.018;8.552;2022-12-07T13:11:56;5.82;;;1.30;;
74632;SDS011;63139;52.018;8.552;2022-12-07T13:20:45;4.10;;;1.48;;
74632;SDS011;63139;52.018;8.552;2022-12-07T13:23:18;5.18;;;1.42;;
74632;SDS011;63139;52.018;8.552;2022-12-07T13:25:59;6.50;;;1.55;;
74632;SDS011;63139;52.018;8.552;2022-12-07T13:28:33;6.25;;;1.67;;
74632;SDS011;63139;52.018;8.552;2022-12-07T13:31:12;6.05;;;1.40;;
74632;SDS011;63139;52.018;8.552;2022-12-07T13:33:56;4.60;;;1.20;;
74632;SDS011;63139;52.018;8.552;2022-12-07T13:36:25;8.88;;;1.80;;
74632;SDS011;63139;52.018;8.552;2022-12-07T13:38:55;5.07;;;1.42;;
74632;SDS011;63139;52.018;8.552;2022-12-07T13:41:25;7.10;;;1.60;;
74632;SDS011;63139;52.018;8.552;2022-12-07T13:44:02;7.13;;;1.35;;
74632;SDS011;63139;52.018;8.552;2022-12-07T13:46:41;5.43;;;1.60;;
74632;SDS011;63139;52.018;8.552;2022-12-07T13:49:19;4.97;;;1.50;;
74632;SDS011;63139;52.018;8.552;2022-12-07T13:51:50;7.25;;;1.52;;
74632;SDS011;63139;52.018;8.552;2022-12-07T13:54:19;5.50;;;1.45;;
74632;SDS011;63139;52.018;8.552;2022-12-07T13:56:49;4.53;;;1.75;;
74632;SDS011;63139;52.018;8.552;2022-12-07T13:59:19;3.92;;;1.33;;
74632;SDS011;63139;52.018;8.552;2022-12-07T14:01:49;8.88;;;2.13;;
74632;SDS011;63139;52.018;8.552;2022-12-07T14:04:19;5.68;;;1.77;;
74632;SDS011;63139;52.018;8.552;2022-12-07T14:06:58;6.20;;;1.52;;
74632;SDS011;63139;52.018;8.552;2022-12-07T14:09:28;5.50;;;1.35;;
74632;SDS011;63139;52.018;8.552;2022-12-07T14:11:56;7.65;;;1.45;;
74632;SDS011;63139;52.018;8.552;2022-12-07T14:14:25;2.80;;;1.38;;
74632;SDS011;63139;52.018;8.552;2022-12-07T14:17:08;7.07;;;1.52;;
74632;SDS011;63139;52.018;8.552;2022-12-07T14:19:42;13.18;;;1.92;;
74632;SDS011;63139;52.018;8.552;2022-12-07T14:22:24;12.40;;;1.95;;
74632;SDS011;63139;52.018;8.552;2022-12-07T14:24:58;4.90;;;1.73;;
74632;SDS011;63139;52.018;8.552;2022-12-07T14:27:30;5.53;;;1.30;;
74632;SDS011;63139;52.018;8.552;2022-12-07T14:30:00;7.10;;;1.48;;
74632;SDS011;63139;52.018;8.552;2022-12-07T14:32:29;11.35;;;1.80;;
74632;SDS011;63139;52.018;8.552;2022-12-07T14:34:58;3.92;;;1.52;;
74632;SDS011;63139;52.018;8.552;2022-12-07T14:37:30;5.70;;;1.80;;
74632;SDS011;63139;52.018;8.552;2022-12-07T14:39:57;3.58;;;1.38;;
74632;SDS011;63139;52.018;8.552;2022-12-07T14:42:27;6.72;;;1.90;;
74632;SDS011;63139;52.018;8.552;2022-12-07T14:44:56;7.18;;;2.05;;
74632;SDS011;63139;52.018;8.552;2022-12-07T14:47:25;11.45;;;2.10;;
74632;SDS011;63139;52.018;8.552;2022-12-07T14:50:15;9.77;;;2.30;;
74632;SDS011;63139;52.018;8.552;2022-12-07T14:52:46;6.30;;;2.28;;
74632;SDS011;63139;52.018;8.552;2022-12-07T14:55:38;6.10;;;1.60;;
74632;SDS011;63139;52.018;8.552;2022-12-07T14:58:05;5.43;;;2.08;;
74632;SDS011;63139;52.018;8.552;2022-12-07T15:00:33;5.45;;;1.83;;
74632;SDS011;63139;52.018;8.552;2022-12-07T15:03:01;7.05;;;1.75;;
74632;SDS011;63139;52.018;8.552;2022-12-07T15:05:29;9.80;;;2.08;;
74632;SDS011;63139;52.018;8.552;2022-12-07T15:07:58;6.50;;;1.75;;
74632;SDS011;63139;52.018;8.552;2022-12-07T15:10:27;6.13;;;1.95;;
74632;SDS011;63139;52.018;8.552;2022-12-07T15:12:58;7.07;;;1.95;;
74632;SDS011;63139;52.018;8.552;2022-12-07T15:15:46;7.10;;;1.90;;
74632;SDS011;63139;52.018;8.552;2022-12-07T15:18:16;5.10;;;1.45;;
74632;SDS011;63139;52.018;8.552;2022-12-07T15:20:44;4.78;;;1.77;;
74632;SDS011;63139;52.018;8.552;2022-12-07T15:23:14;9.77;;;1.90;;
74632;SDS011;63139;52.018;8.552;2022-12-07T15:25:43;5.40;;;2.00;;
74632;SDS011;63139;52.018;8.552;2022-12-07T15:28:11;4.97;;;1.80;;
74632;SDS011;63139;52.018;8.552;2022-12-07T15:30:40;7.72;;;1.75;;
74632;SDS011;63139;52.018;8.552;2022-12-07T15:33:09;7.68;;;2.13;;
74632;SDS011;63139;52.018;8.552;2022-12-07T15:35:38;7.63;;;1.67;;
74632;SDS011;63139;52.018;8.552;2022-12-07T15:38:06;9.45;;;1.88;;
74632;SDS011;63139;52.018;8.552;2022-12-07T15:40:35;7.35;;;1.90;;